Flight Track Log - Related Links

Times and Time Zones

All times are in EDT time to prevent confusion due to time zone crossing. See the CSC8974 flight status page for this flight to view local times or setup timezone preferences in your user account.


Time Position Orientation Groundspeed Altitude Reporting Facility
EDT Latitude Longitude Course Direction KTS MPH feet Rate Location/Type
Thu 06:27:00 AM 31.1226 121.2451 268° West  Level Estimated
Thu 06:27:42 AM 31.3227 121.5578 259° West 298 343 14,400  Level FlightAware ADS-B (ZSSS / SHA)
Thu 06:28:00 AM 31.1183 121.1357 267° West  Level Estimated
Thu 06:28:18 AM 31.3127 121.4982 260° West 306 352 15,900  Level FlightAware ADS-B (ZSSS / SHA)
Thu 06:28:48 AM 31.3046 121.4501 259° West 310 357 17,200 1,800 Climbing FlightAware ADS-B (ZSSS / SHA)
Thu 06:29:18 AM 31.2961 121.3990 260° West 333 383 17,700 500 Climbing FlightAware ADS-B (ZSSS / SHA)
Thu 06:29:48 AM 31.2912 121.3478 276° West 334 384 17,700  Level FlightAware ADS-B (ZSSS / SHA)
Thu 06:29:58 AM 31.2940 121.3316 289° West 335 386 17,700 316 Level FlightAware ADS-B (ZSSS / SHA)
Thu 06:30:07 AM 31.3012 121.3138 304° West 339 390 17,800 900 Climbing FlightAware ADS-B (ZSSS / SHA)
Thu 06:30:38 AM 31.3319 121.2721 311° West 345 397 18,300 984 Climbing FlightAware ADS-B (ZSSS / SHA)
Thu 06:31:08 AM 31.3656 121.2273 312° West 344 396 18,800 982 Climbing FlightAware ADS-B (ZSSS / SHA)
Thu 06:31:33 AM 31.3902 121.1951 312° West 343 395 19,200 931 Climbing FlightAware ADS-B (ZSSS / SHA)
Thu 06:32:06 AM 31.4249 121.1498 312° West 346 398 19,700 909 Climbing FlightAware ADS-B (ZSSS / SHA)
Thu 06:34:00 AM 31.4122 120.9415 266° West  Level Estimated
Thu 06:35:00 AM 31.4054 120.8319 266° West  Level Estimated
Thu 06:36:00 AM 31.3985 120.7224 266° West  Level Estimated
Thu 06:37:00 AM 31.3915 120.6128 266° West  Level Estimated
Thu 06:38:00 AM 31.3844 120.5033 266° West  Level Estimated
Thu 06:39:00 AM 31.3772 120.3938 266° West  Level Estimated
Thu 06:40:00 AM 31.3699 120.2843 266° West  Level Estimated
Thu 06:41:00 AM 31.3626 120.1748 266° West  Level Estimated
Thu 06:42:00 AM 31.3551 120.0654 265° West  Level Estimated
Thu 06:43:00 AM 31.3476 119.9559 265° West  Level Estimated
Thu 06:44:00 AM 31.3399 119.8465 265° West  Level Estimated
Thu 06:45:00 AM 31.3322 119.7371 265° West  Level Estimated
Thu 06:46:00 AM 31.3243 119.6277 265° West  Level Estimated
Thu 06:47:00 AM 31.3164 119.5183 265° West  Level Estimated
Thu 06:48:00 AM 31.3084 119.4090 265° West  Level Estimated
Thu 06:49:00 AM 31.3003 119.2996 265° West  Level Estimated
Thu 06:50:00 AM 31.2921 119.1903 265° West  Level Estimated
Thu 06:51:00 AM 31.2838 119.0810 265° West  Level Estimated
Thu 06:52:00 AM 31.2754 118.9718 265° West  Level Estimated
Thu 06:53:00 AM 31.2669 118.8625 265° West  Level Estimated
Thu 06:54:00 AM 31.2583 118.7533 265° West  Level Estimated
Thu 06:55:00 AM 31.2497 118.6441 265° West  Level Estimated
Thu 06:56:00 AM 31.2409 118.5349 265° West  Level Estimated
Thu 06:57:00 AM 31.2321 118.4257 265° West  Level Estimated
Thu 06:58:00 AM 31.2231 118.3165 265° West  Level Estimated
Thu 06:59:00 AM 31.2141 118.2074 264° West  Level Estimated
Thu 07:00:00 AM 31.2050 118.0983 264° West  Level Estimated
Thu 07:01:00 AM 31.1957 117.9892 264° West  Level Estimated
Thu 07:02:00 AM 31.1864 117.8801 264° West  Level Estimated
Thu 07:03:00 AM 31.1770 117.7710 264° West  Level Estimated
Thu 07:04:00 AM 31.1675 117.6620 264° West  Level Estimated
Thu 07:05:00 AM 31.1579 117.5530 264° West  Level Estimated
Thu 07:06:00 AM 31.1483 117.4440 264° West  Level Estimated
Thu 07:07:00 AM 31.1385 117.3351 264° West  Level Estimated
Thu 07:08:00 AM 31.1286 117.2261 264° West  Level Estimated
Thu 07:09:00 AM 31.1187 117.1172 264° West  Level Estimated
Thu 07:10:00 AM 31.1086 117.0083 264° West  Level Estimated
Thu 07:11:00 AM 31.0985 116.8995 264° West  Level Estimated
Thu 07:12:00 AM 31.0882 116.7906 264° West  Level Estimated
Thu 07:13:00 AM 31.0779 116.6818 264° West  Level Estimated
Thu 07:14:00 AM 31.0675 116.5730 264° West  Level Estimated
Thu 07:15:00 AM 31.0570 116.4642 264° West  Level Estimated
Thu 07:16:00 AM 31.0464 116.3555 264° West  Level Estimated
Thu 07:17:00 AM 31.0357 116.2467 263° West  Level Estimated
Thu 07:18:00 AM 31.0250 116.1380 263° West  Level Estimated
Thu 07:19:00 AM 31.0141 116.0293 263° West  Level Estimated
Thu 07:20:00 AM 31.0031 115.9207 263° West  Level Estimated
Thu 07:21:00 AM 30.9921 115.8121 263° West  Level Estimated
Thu 07:22:00 AM 30.9809 115.7035 263° West  Level Estimated
Thu 07:23:00 AM 30.9697 115.5949 263° West  Level Estimated
Thu 07:24:00 AM 30.9584 115.4863 263° West  Level Estimated
Thu 07:25:00 AM 30.9470 115.3778 263° West  Level Estimated
Thu 07:26:00 AM 30.9355 115.2693 263° West  Level Estimated
Thu 07:27:00 AM 30.9239 115.1608 263° West  Level Estimated
Thu 07:28:00 AM 30.9122 115.0524 263° West  Level Estimated
Thu 07:29:00 AM 30.9004 114.9440 263° West  Level Estimated
Thu 07:30:00 AM 30.8885 114.8356 263° West  Level Estimated
Thu 07:31:00 AM 30.8766 114.7272 263° West  Level Estimated
Thu 07:32:00 AM 30.8645 114.6189 263° West  Level Estimated
Thu 07:33:00 AM 30.8524 114.5106 263° West  Level Estimated
Thu 07:34:00 AM 30.8402 114.4023 263° West  Level Estimated
Thu 07:35:00 AM 30.8279 114.2940 262° West  Level Estimated
Thu 07:36:00 AM 30.8155 114.1858 262° West  Level Estimated
Thu 07:37:00 AM 30.8030 114.0776 262° West  Level Estimated
Thu 07:38:00 AM 30.7904 113.9694 262° West  Level Estimated
Thu 07:39:00 AM 30.7777 113.8613 262° West  Level Estimated
Thu 07:40:00 AM 30.7649 113.7531 262° West  Level Estimated
Thu 07:41:00 AM 30.7521 113.6451 262° West  Level Estimated
Thu 07:42:00 AM 30.7391 113.5370 262° West  Level Estimated
Thu 07:43:00 AM 30.7261 113.4290 262° West  Level Estimated
Thu 07:44:00 AM 30.7130 113.3210 262° West  Level Estimated
Thu 07:45:00 AM 30.6998 113.2130 262° West  Level Estimated
Thu 07:46:00 AM 30.6864 113.1050 262° West  Level Estimated
Thu 07:47:00 AM 30.6731 112.9971 262° West  Level Estimated
Thu 07:48:00 AM 30.6596 112.8893 262° West  Level Estimated
Thu 07:49:00 AM 30.6460 112.7814 262° West  Level Estimated
Thu 07:50:00 AM 30.6324 112.6736 262° West  Level Estimated
Thu 07:51:00 AM 30.6186 112.5658 262° West  Level Estimated
Thu 07:52:00 AM 30.6048 112.4580 262° West  Level Estimated
Thu 07:53:00 AM 30.5908 112.3503 261° West  Level Estimated
Thu 07:54:00 AM 30.5768 112.2426 261° West  Level Estimated
Thu 07:55:00 AM 30.5627 112.1349 261° West  Level Estimated
Thu 07:56:00 AM 30.5485 112.0273 261° West  Level Estimated
Thu 07:57:00 AM 30.5343 111.9197 261° West  Level Estimated
Thu 07:58:00 AM 30.5199 111.8121 261° West  Level Estimated
Thu 07:59:00 AM 30.5054 111.7046 261° West  Level Estimated
Thu 08:00:00 AM 30.4909 111.5971 261° West  Level Estimated
Thu 08:01:00 AM 30.4762 111.4896 261° West  Level Estimated
Thu 08:02:00 AM 30.4615 111.3822 261° West  Level Estimated
Thu 08:03:00 AM 30.4467 111.2748 261° West  Level Estimated
Thu 08:04:00 AM 30.4318 111.1674 261° West  Level Estimated
Thu 08:05:00 AM 30.4168 111.0600 261° West  Level Estimated
Thu 08:06:00 AM 30.4018 110.9527 261° West  Level Estimated
Thu 08:07:00 AM 30.3866 110.8455 261° West  Level Estimated
Thu 08:08:00 AM 30.3713 110.7382 261° West  Level Estimated
Thu 08:09:00 AM 30.3560 110.6310 261° West  Level Estimated
Thu 08:10:00 AM 30.3406 110.5238 261° West  Level Estimated
Thu 08:11:00 AM 30.3251 110.4167 261° West  Level Estimated
Thu 08:12:00 AM 30.3095 110.3096 260° West  Level Estimated
Thu 08:13:00 AM 30.2938 110.2025 260° West  Level Estimated
Thu 08:14:00 AM 30.2780 110.0954 260° West  Level Estimated
Thu 08:15:00 AM 30.2622 109.9884 260° West  Level Estimated
Thu 08:16:00 AM 30.2462 109.8815 260° West  Level Estimated
Thu 08:17:00 AM 30.2302 109.7745 260° West  Level Estimated
Thu 08:18:00 AM 30.2141 109.6676 260° West  Level Estimated
Thu 08:19:00 AM 30.1979 109.5608 260° West  Level Estimated
Thu 08:20:00 AM 30.1816 109.4539 260° West  Level Estimated
Thu 08:21:00 AM 30.1652 109.3471 260° West  Level Estimated
Thu 08:22:00 AM 30.1487 109.2404 260° West  Level Estimated
Thu 08:23:00 AM 30.1322 109.1336 260° West  Level Estimated
Thu 08:24:00 AM 30.1155 109.0269 260° West  Level Estimated
Thu 08:25:00 AM 30.0988 108.9203 260° West  Level Estimated
Thu 08:26:00 AM 30.0820 108.8137 260° West  Level Estimated
Thu 08:27:00 AM 30.0651 108.7071 260° West  Level Estimated
Thu 08:28:00 AM 30.0481 108.6005 260° West  Level Estimated
Thu 08:29:00 AM 30.0310 108.4940 260° West  Level Estimated
Thu 08:30:00 AM 30.0139 108.3876 259° West  Level Estimated
Thu 08:31:00 AM 29.9967 108.2811 259° West  Level Estimated
Thu 08:32:00 AM 29.9793 108.1747 259° West  Level Estimated
Thu 08:33:00 AM 29.9619 108.0684 259° West  Level Estimated
Thu 08:34:00 AM 29.9444 107.9621 259° West  Level Estimated
Thu 08:35:00 AM 29.9268 107.8558 259° West  Level Estimated
Thu 08:36:00 AM 29.9092 107.7495 259° West  Level Estimated
Thu 08:37:00 AM 29.8914 107.6433 259° West  Level Estimated
Thu 08:38:00 AM 29.8736 107.5371 259° West  Level Estimated
Thu 08:39:00 AM 29.8556 107.4310 259° West  Level Estimated
Thu 08:40:00 AM 29.8376 107.3249 259° West  Level Estimated
Thu 08:41:00 AM 29.8195 107.2189 259° West  Level Estimated
Thu 08:42:00 AM 29.8014 107.1128 259° West  Level Estimated
Thu 08:43:00 AM 29.7831 107.0069 259° West  Level Estimated
Thu 08:44:00 AM 29.7648 106.9009 259° West  Level Estimated
Thu 08:45:00 AM 29.7463 106.7950 259° West  Level Estimated
Thu 08:46:00 AM 29.7278 106.6892 259° West  Level Estimated
Thu 08:47:00 AM 29.7194 106.6410 259° West  Level Estimated
Thu 08:48:00 AM 29.7194 106.6410 North  Level Estimated
Thu 08:49:00 AM 29.7194 106.6410 North  Level Estimated
Thu 08:50:00 AM 29.7194 106.6410 North  Level Estimated
Thu 08:51:00 AM 29.7194 106.6410 North  Level Estimated
Thu 08:52:00 AM 29.7194 106.6410 North  Level Estimated
Thu 08:53:00 AM 29.7194 106.6410 North  Level Estimated
Thu 08:54:00 AM 29.7194 106.6410 North  Level Estimated
Thu 08:55:00 AM 29.7194 106.6410 North  Level Estimated
Thu 08:56:00 AM 29.7194 106.6410 North  Level Estimated
Thu 08:57:00 AM 29.7194 106.6410 North  Level Estimated
Thu 08:58:00 AM 29.7194 106.6410 North  Level Estimated

Login

Don't have an account? Register now (free) for customized features, flight alerts, and more!